sensor_id;sensor_type;location;lat;lon;timestamp;temperature;humidity
3713;DHT22;1872;51.406;6.856;2024-03-08T00:00:08;4.40;99.90
3713;DHT22;1872;51.406;6.856;2024-03-08T00:02:38;4.40;99.90
3713;DHT22;1872;51.406;6.856;2024-03-08T00:05:05;4.40;99.90
3713;DHT22;1872;51.406;6.856;2024-03-08T00:07:31;4.30;99.90
3713;DHT22;1872;51.406;6.856;2024-03-08T00:09:58;4.30;99.90
3713;DHT22;1872;51.406;6.856;2024-03-08T00:12:24;4.30;99.90
3713;DHT22;1872;51.406;6.856;2024-03-08T00:14:52;4.30;99.90
3713;DHT22;1872;51.406;6.856;2024-03-08T00:17:18;4.30;99.90
3713;DHT22;1872;51.406;6.856;2024-03-08T00:19:44;4.30;99.90
3713;DHT22;1872;51.406;6.856;2024-03-08T00:22:10;4.20;99.90
3713;DHT22;1872;51.406;6.856;2024-03-08T00:24:37;4.20;99.90
3713;DHT22;1872;51.406;6.856;2024-03-08T00:27:03;4.20;99.90
3713;DHT22;1872;51.406;6.856;2024-03-08T00:29:30;4.20;99.90
3713;DHT22;1872;51.406;6.856;2024-03-08T00:31:56;4.20;99.90
3713;DHT22;1872;51.406;6.856;2024-03-08T00:34:21;4.20;99.90
3713;DHT22;1872;51.406;6.856;2024-03-08T00:36:48;4.10;99.90
3713;DHT22;1872;51.406;6.856;2024-03-08T00:39:14;4.10;99.90
3713;DHT22;1872;51.406;6.856;2024-03-08T00:41:40;4.10;99.90
3713;DHT22;1872;51.406;6.856;2024-03-08T00:44:06;4.10;99.90
3713;DHT22;1872;51.406;6.856;2024-03-08T00:46:31;4.10;99.90
3713;DHT22;1872;51.406;6.856;2024-03-08T00:48:57;4.00;99.90
3713;DHT22;1872;51.406;6.856;2024-03-08T00:51:23;4.00;99.90
3713;DHT22;1872;51.406;6.856;2024-03-08T00:53:48;4.00;99.90
3713;DHT22;1872;51.406;6.856;2024-03-08T00:56:14;4.00;99.90
3713;DHT22;1872;51.406;6.856;2024-03-08T00:58:40;3.90;99.90
3713;DHT22;1872;51.406;6.856;2024-03-08T01:01:05;3.90;99.90
3713;DHT22;1872;51.406;6.856;2024-03-08T01:03:31;3.90;99.90
3713;DHT22;1872;51.406;6.856;2024-03-08T01:05:57;3.90;99.90
3713;DHT22;1872;51.406;6.856;2024-03-08T01:08:25;3.90;99.90
3713;DHT22;1872;51.406;6.856;2024-03-08T01:10:51;3.90;99.90
3713;DHT22;1872;51.406;6.856;2024-03-08T01:13:16;3.90;99.90
3713;DHT22;1872;51.406;6.856;2024-03-08T01:15:42;3.80;99.90
3713;DHT22;1872;51.406;6.856;2024-03-08T01:18:08;3.80;99.90
3713;DHT22;1872;51.406;6.856;2024-03-08T01:20:34;3.80;99.90
3713;DHT22;1872;51.406;6.856;2024-03-08T01:22:59;3.80;99.90
3713;DHT22;1872;51.406;6.856;2024-03-08T01:25:25;3.80;99.90
3713;DHT22;1872;51.406;6.856;2024-03-08T01:27:51;3.80;99.90
3713;DHT22;1872;51.406;6.856;2024-03-08T01:30:19;3.70;99.90
3713;DHT22;1872;51.406;6.856;2024-03-08T01:32:45;3.70;99.90
3713;DHT22;1872;51.406;6.856;2024-03-08T01:35:11;3.70;99.90
3713;DHT22;1872;51.406;6.856;2024-03-08T01:37:37;3.70;99.90
3713;DHT22;1872;51.406;6.856;2024-03-08T01:40:04;3.60;99.90
3713;DHT22;1872;51.406;6.856;2024-03-08T01:42:29;3.60;99.90
3713;DHT22;1872;51.406;6.856;2024-03-08T01:44:55;3.60;99.90
3713;DHT22;1872;51.406;6.856;2024-03-08T01:47:21;3.60;99.90
3713;DHT22;1872;51.406;6.856;2024-03-08T01:49:49;3.50;99.90
3713;DHT22;1872;51.406;6.856;2024-03-08T01:52:16;3.50;99.90
3713;DHT22;1872;51.406;6.856;2024-03-08T01:54:44;3.40;99.90
3713;DHT22;1872;51.406;6.856;2024-03-08T01:57:11;3.40;99.90
3713;DHT22;1872;51.406;6.856;2024-03-08T01:59:39;3.40;99.90
3713;DHT22;1872;51.406;6.856;2024-03-08T02:02:08;3.40;99.90
3713;DHT22;1872;51.406;6.856;2024-03-08T02:04:37;3.30;99.90
3713;DHT22;1872;51.406;6.856;2024-03-08T02:07:04;3.30;99.90
3713;DHT22;1872;51.406;6.856;2024-03-08T02:09:31;3.20;99.90
3713;DHT22;1872;51.406;6.856;2024-03-08T02:11:57;3.20;99.90
3713;DHT22;1872;51.406;6.856;2024-03-08T02:14:23;3.20;99.90
3713;DHT22;1872;51.406;6.856;2024-03-08T02:16:49;3.20;99.90
3713;DHT22;1872;51.406;6.856;2024-03-08T02:19:16;3.10;99.90
3713;DHT22;1872;51.406;6.856;2024-03-08T02:24:46;3.10;99.90
3713;DHT22;1872;51.406;6.856;2024-03-08T02:27:11;3.10;99.90
3713;DHT22;1872;51.406;6.856;2024-03-08T02:29:37;3.00;99.90
3713;DHT22;1872;51.406;6.856;2024-03-08T02:32:06;3.00;99.90
3713;DHT22;1872;51.406;6.856;2024-03-08T02:34:32;3.00;99.90
3713;DHT22;1872;51.406;6.856;2024-03-08T02:36:57;3.00;99.90
3713;DHT22;1872;51.406;6.856;2024-03-08T02:39:24;2.90;99.90
3713;DHT22;1872;51.406;6.856;2024-03-08T02:41:49;3.00;99.90
3713;DHT22;1872;51.406;6.856;2024-03-08T02:44:15;3.00;99.90
3713;DHT22;1872;51.406;6.856;2024-03-08T02:46:40;2.90;99.90
3713;DHT22;1872;51.406;6.856;2024-03-08T02:49:06;2.90;99.90
3713;DHT22;1872;51.406;6.856;2024-03-08T02:51:33;2.90;99.90
3713;DHT22;1872;51.406;6.856;2024-03-08T02:54:01;2.90;99.90
3713;DHT22;1872;51.406;6.856;2024-03-08T02:56:26;2.90;99.90
3713;DHT22;1872;51.406;6.856;2024-03-08T02:58:52;2.90;99.90
3713;DHT22;1872;51.406;6.856;2024-03-08T03:01:18;2.90;99.90
3713;DHT22;1872;51.406;6.856;2024-03-08T03:03:45;2.80;99.90
3713;DHT22;1872;51.406;6.856;2024-03-08T03:06:12;2.80;99.90
3713;DHT22;1872;51.406;6.856;2024-03-08T03:08:38;2.80;99.90
3713;DHT22;1872;51.406;6.856;2024-03-08T03:11:04;2.80;99.90
3713;DHT22;1872;51.406;6.856;2024-03-08T03:13:29;2.80;99.90
3713;DHT22;1872;51.406;6.856;2024-03-08T03:15:55;2.70;99.90
3713;DHT22;1872;51.406;6.856;2024-03-08T03:18:23;2.70;99.90
3713;DHT22;1872;51.406;6.856;2024-03-08T03:20:49;2.60;99.90
3713;DHT22;1872;51.406;6.856;2024-03-08T03:23:15;2.60;99.90
3713;DHT22;1872;51.406;6.856;2024-03-08T03:25:46;2.60;99.90
3713;DHT22;1872;51.406;6.856;2024-03-08T03:28:11;2.60;99.90
3713;DHT22;1872;51.406;6.856;2024-03-08T03:30:44;2.60;99.90
3713;DHT22;1872;51.406;6.856;2024-03-08T03:33:12;2.60;99.90
3713;DHT22;1872;51.406;6.856;2024-03-08T03:35:40;2.60;99.90
3713;DHT22;1872;51.406;6.856;2024-03-08T03:38:07;2.50;99.90
3713;DHT22;1872;51.406;6.856;2024-03-08T03:40:33;2.50;99.90
3713;DHT22;1872;51.406;6.856;2024-03-08T03:43:00;2.50;99.90
3713;DHT22;1872;51.406;6.856;2024-03-08T03:45:26;2.50;99.90
3713;DHT22;1872;51.406;6.856;2024-03-08T03:47:52;2.50;99.90
3713;DHT22;1872;51.406;6.856;2024-03-08T03:50:21;2.50;99.90
3713;DHT22;1872;51.406;6.856;2024-03-08T03:52:47;2.50;99.90
3713;DHT22;1872;51.406;6.856;2024-03-08T03:55:14;2.50;99.90
3713;DHT22;1872;51.406;6.856;2024-03-08T03:57:40;2.50;99.90
3713;DHT22;1872;51.406;6.856;2024-03-08T04:00:06;2.50;99.90
3713;DHT22;1872;51.406;6.856;2024-03-08T04:02:37;2.50;99.90
3713;DHT22;1872;51.406;6.856;2024-03-08T04:05:04;2.50;99.90
3713;DHT22;1872;51.406;6.856;2024-03-08T04:07:30;2.50;99.90
3713;DHT22;1872;51.406;6.856;2024-03-08T04:09:56;2.50;99.90
3713;DHT22;1872;51.406;6.856;2024-03-08T04:12:21;2.50;99.90
3713;DHT22;1872;51.406;6.856;2024-03-08T04:14:48;2.50;99.90
3713;DHT22;1872;51.406;6.856;2024-03-08T04:17:14;2.50;99.90
3713;DHT22;1872;51.406;6.856;2024-03-08T04:19:39;2.50;99.90
3713;DHT22;1872;51.406;6.856;2024-03-08T04:22:06;2.40;99.90
3713;DHT22;1872;51.406;6.856;2024-03-08T04:24:33;2.40;99.90
3713;DHT22;1872;51.406;6.856;2024-03-08T04:26:59;2.40;99.90
3713;DHT22;1872;51.406;6.856;2024-03-08T04:29:25;2.40;99.90
3713;DHT22;1872;51.406;6.856;2024-03-08T04:31:50;2.40;99.90
3713;DHT22;1872;51.406;6.856;2024-03-08T04:34:20;2.40;99.90
3713;DHT22;1872;51.406;6.856;2024-03-08T04:36:49;2.40;99.90
3713;DHT22;1872;51.406;6.856;2024-03-08T04:39:14;2.40;99.90
3713;DHT22;1872;51.406;6.856;2024-03-08T04:44:59;2.40;99.90
3713;DHT22;1872;51.406;6.856;2024-03-08T04:47:26;2.30;99.90
3713;DHT22;1872;51.406;6.856;2024-03-08T04:49:52;2.30;99.90
3713;DHT22;1872;51.406;6.856;2024-03-08T04:52:18;2.30;99.90
3713;DHT22;1872;51.406;6.856;2024-03-08T04:54:44;2.30;99.90
3713;DHT22;1872;51.406;6.856;2024-03-08T04:57:10;2.30;99.90
3713;DHT22;1872;51.406;6.856;2024-03-08T04:59:37;2.30;99.90
3713;DHT22;1872;51.406;6.856;2024-03-08T05:02:03;2.30;99.90
3713;DHT22;1872;51.406;6.856;2024-03-08T05:04:29;2.20;99.90
3713;DHT22;1872;51.406;6.856;2024-03-08T05:06:55;2.20;99.90
3713;DHT22;1872;51.406;6.856;2024-03-08T05:09:21;2.20;99.90
3713;DHT22;1872;51.406;6.856;2024-03-08T05:11:47;2.20;99.90
3713;DHT22;1872;51.406;6.856;2024-03-08T05:14:13;2.10;99.90
3713;DHT22;1872;51.406;6.856;2024-03-08T05:16:45;2.10;99.90
3713;DHT22;1872;51.406;6.856;2024-03-08T05:19:20;2.10;99.90
3713;DHT22;1872;51.406;6.856;2024-03-08T05:21:47;2.00;99.90
3713;DHT22;1872;51.406;6.856;2024-03-08T05:24:13;2.00;99.90
3713;DHT22;1872;51.406;6.856;2024-03-08T05:26:40;2.00;99.90
3713;DHT22;1872;51.406;6.856;2024-03-08T05:29:06;2.00;99.90
3713;DHT22;1872;51.406;6.856;2024-03-08T05:31:49;2.00;99.90
3713;DHT22;1872;51.406;6.856;2024-03-08T05:37:49;2.00;99.90
3713;DHT22;1872;51.406;6.856;2024-03-08T05:40:14;2.00;99.90
3713;DHT22;1872;51.406;6.856;2024-03-08T05:42:40;2.00;99.90
3713;DHT22;1872;51.406;6.856;2024-03-08T05:45:06;2.00;99.90
3713;DHT22;1872;51.406;6.856;2024-03-08T05:47:32;2.00;99.90
3713;DHT22;1872;51.406;6.856;2024-03-08T05:49:59;2.00;99.90
3713;DHT22;1872;51.406;6.856;2024-03-08T05:52:25;2.00;99.90
3713;DHT22;1872;51.406;6.856;2024-03-08T05:54:51;2.00;99.90
3713;DHT22;1872;51.406;6.856;2024-03-08T05:57:17;2.00;99.90
3713;DHT22;1872;51.406;6.856;2024-03-08T05:59:43;2.00;99.90
3713;DHT22;1872;51.406;6.856;2024-03-08T06:02:08;2.00;99.90
3713;DHT22;1872;51.406;6.856;2024-03-08T06:04:34;1.90;99.90
3713;DHT22;1872;51.406;6.856;2024-03-08T06:07:00;1.90;99.90
3713;DHT22;1872;51.406;6.856;2024-03-08T06:09:28;1.90;99.90
3713;DHT22;1872;51.406;6.856;2024-03-08T06:11:54;1.90;99.90
3713;DHT22;1872;51.406;6.856;2024-03-08T06:14:20;1.90;99.90
3713;DHT22;1872;51.406;6.856;2024-03-08T06:16:46;1.90;99.90
3713;DHT22;1872;51.406;6.856;2024-03-08T06:19:13;1.90;99.90
3713;DHT22;1872;51.406;6.856;2024-03-08T06:21:39;1.90;99.90
3713;DHT22;1872;51.406;6.856;2024-03-08T06:24:05;1.90;99.90
3713;DHT22;1872;51.406;6.856;2024-03-08T06:26:30;1.90;99.90
3713;DHT22;1872;51.406;6.856;2024-03-08T06:28:57;1.90;99.90
3713;DHT22;1872;51.406;6.856;2024-03-08T06:31:23;2.00;99.90
3713;DHT22;1872;51.406;6.856;2024-03-08T06:33:49;2.00;99.90
3713;DHT22;1872;51.406;6.856;2024-03-08T06:36:18;2.00;99.90
3713;DHT22;1872;51.406;6.856;2024-03-08T06:38:50;2.00;99.90
3713;DHT22;1872;51.406;6.856;2024-03-08T06:41:16;2.10;99.90
3713;DHT22;1872;51.406;6.856;2024-03-08T06:43:43;2.10;99.90
3713;DHT22;1872;51.406;6.856;2024-03-08T06:46:09;2.10;99.90
3713;DHT22;1872;51.406;6.856;2024-03-08T06:48:35;2.10;99.90
3713;DHT22;1872;51.406;6.856;2024-03-08T06:51:03;2.10;99.90
3713;DHT22;1872;51.406;6.856;2024-03-08T06:53:29;2.10;99.90
3713;DHT22;1872;51.406;6.856;2024-03-08T06:55:55;2.20;99.90
3713;DHT22;1872;51.406;6.856;2024-03-08T06:58:21;2.10;99.90
3713;DHT22;1872;51.406;6.856;2024-03-08T07:00:47;2.20;99.90
3713;DHT22;1872;51.406;6.856;2024-03-08T07:03:17;2.30;99.90
3713;DHT22;1872;51.406;6.856;2024-03-08T07:05:43;2.30;99.90
3713;DHT22;1872;51.406;6.856;2024-03-08T07:08:09;2.40;99.90
3713;DHT22;1872;51.406;6.856;2024-03-08T07:10:34;2.50;99.90
3713;DHT22;1872;51.406;6.856;2024-03-08T07:13:02;2.50;99.90
3713;DHT22;1872;51.406;6.856;2024-03-08T07:18:41;2.70;99.90
3713;DHT22;1872;51.406;6.856;2024-03-08T07:21:09;2.70;99.90
3713;DHT22;1872;51.406;6.856;2024-03-08T07:23:37;2.80;99.90
3713;DHT22;1872;51.406;6.856;2024-03-08T07:26:15;2.90;99.90
3713;DHT22;1872;51.406;6.856;2024-03-08T07:28:42;3.00;99.90
3713;DHT22;1872;51.406;6.856;2024-03-08T07:31:07;3.10;99.90
3713;DHT22;1872;51.406;6.856;2024-03-08T07:33:42;3.20;99.90
3713;DHT22;1872;51.406;6.856;2024-03-08T07:36:08;3.30;99.90
3713;DHT22;1872;51.406;6.856;2024-03-08T07:38:34;3.40;99.90
3713;DHT22;1872;51.406;6.856;2024-03-08T07:41:00;3.50;99.90
3713;DHT22;1872;51.406;6.856;2024-03-08T07:43:26;3.60;99.90
3713;DHT22;1872;51.406;6.856;2024-03-08T07:45:52;3.70;99.90
3713;DHT22;1872;51.406;6.856;2024-03-08T07:48:20;3.80;99.90
3713;DHT22;1872;51.406;6.856;2024-03-08T07:50:46;3.90;99.90
3713;DHT22;1872;51.406;6.856;2024-03-08T07:53:12;4.00;99.90
3713;DHT22;1872;51.406;6.856;2024-03-08T07:55:38;4.20;99.90
3713;DHT22;1872;51.406;6.856;2024-03-08T07:58:05;4.30;99.90
3713;DHT22;1872;51.406;6.856;2024-03-08T08:00:31;4.40;99.90
3713;DHT22;1872;51.406;6.856;2024-03-08T08:02:57;4.50;99.90
3713;DHT22;1872;51.406;6.856;2024-03-08T08:05:23;4.60;99.90
3713;DHT22;1872;51.406;6.856;2024-03-08T08:07:48;4.70;99.90
3713;DHT22;1872;51.406;6.856;2024-03-08T08:10:16;4.80;99.90
3713;DHT22;1872;51.406;6.856;2024-03-08T08:12:48;5.00;99.90
3713;DHT22;1872;51.406;6.856;2024-03-08T08:15:15;5.10;99.90
3713;DHT22;1872;51.406;6.856;2024-03-08T08:17:42;5.20;99.90
3713;DHT22;1872;51.406;6.856;2024-03-08T08:20:09;5.30;99.90
3713;DHT22;1872;51.406;6.856;2024-03-08T08:22:39;5.50;99.90
3713;DHT22;1872;51.406;6.856;2024-03-08T08:25:06;5.70;99.90
3713;DHT22;1872;51.406;6.856;2024-03-08T08:27:32;5.80;99.90
3713;DHT22;1872;51.406;6.856;2024-03-08T08:29:58;5.90;99.90
3713;DHT22;1872;51.406;6.856;2024-03-08T08:32:24;6.00;99.90
3713;DHT22;1872;51.406;6.856;2024-03-08T08:34:50;6.10;99.90
3713;DHT22;1872;51.406;6.856;2024-03-08T08:37:17;6.10;99.90
3713;DHT22;1872;51.406;6.856;2024-03-08T08:39:42;6.30;99.90
3713;DHT22;1872;51.406;6.856;2024-03-08T08:42:08;6.40;99.90
3713;DHT22;1872;51.406;6.856;2024-03-08T08:44:35;6.50;99.90
3713;DHT22;1872;51.406;6.856;2024-03-08T08:47:01;6.60;99.90
3713;DHT22;1872;51.406;6.856;2024-03-08T08:49:29;6.60;99.90
3713;DHT22;1872;51.406;6.856;2024-03-08T08:51:56;6.70;99.90
3713;DHT22;1872;51.406;6.856;2024-03-08T08:54:24;6.70;99.90
3713;DHT22;1872;51.406;6.856;2024-03-08T08:56:51;6.80;99.90
3713;DHT22;1872;51.406;6.856;2024-03-08T08:59:16;6.80;99.90
3713;DHT22;1872;51.406;6.856;2024-03-08T09:01:46;6.90;99.90
3713;DHT22;1872;51.406;6.856;2024-03-08T09:04:15;6.90;99.90
3713;DHT22;1872;51.406;6.856;2024-03-08T09:06:41;7.00;99.90
3713;DHT22;1872;51.406;6.856;2024-03-08T09:09:07;7.10;99.90
3713;DHT22;1872;51.406;6.856;2024-03-08T09:11:34;7.10;99.90
3713;DHT22;1872;51.406;6.856;2024-03-08T09:14:00;7.10;99.90
3713;DHT22;1872;51.406;6.856;2024-03-08T09:16:27;7.10;99.90
3713;DHT22;1872;51.406;6.856;2024-03-08T09:18:53;7.10;99.90
3713;DHT22;1872;51.406;6.856;2024-03-08T09:21:18;7.10;99.90
3713;DHT22;1872;51.406;6.856;2024-03-08T09:23:44;7.10;99.90
3713;DHT22;1872;51.406;6.856;2024-03-08T09:26:11;7.20;99.90
3713;DHT22;1872;51.406;6.856;2024-03-08T09:28:38;7.10;99.90
3713;DHT22;1872;51.406;6.856;2024-03-08T09:31:04;7.10;99.90
3713;DHT22;1872;51.406;6.856;2024-03-08T09:33:31;7.10;99.90
3713;DHT22;1872;51.406;6.856;2024-03-08T09:35:56;7.20;99.90
3713;DHT22;1872;51.406;6.856;2024-03-08T09:38:25;7.20;99.90
3713;DHT22;1872;51.406;6.856;2024-03-08T09:40:51;7.20;99.90
3713;DHT22;1872;51.406;6.856;2024-03-08T09:43:18;7.20;99.90
3713;DHT22;1872;51.406;6.856;2024-03-08T09:45:45;7.20;99.90
3713;DHT22;1872;51.406;6.856;2024-03-08T09:48:12;7.20;99.90
3713;DHT22;1872;51.406;6.856;2024-03-08T09:50:40;7.20;99.90
3713;DHT22;1872;51.406;6.856;2024-03-08T09:53:06;7.30;99.90
3713;DHT22;1872;51.406;6.856;2024-03-08T09:55:38;7.30;99.90
3713;DHT22;1872;51.406;6.856;2024-03-08T09:58:12;7.30;99.90
3713;DHT22;1872;51.406;6.856;2024-03-08T10:00:53;7.40;99.90
3713;DHT22;1872;51.406;6.856;2024-03-08T10:03:22;7.40;99.90
3713;DHT22;1872;51.406;6.856;2024-03-08T10:05:48;7.40;99.90
3713;DHT22;1872;51.406;6.856;2024-03-08T10:08:14;7.40;99.90
3713;DHT22;1872;51.406;6.856;2024-03-08T10:10:40;7.40;99.90
3713;DHT22;1872;51.406;6.856;2024-03-08T10:13:09;7.40;99.90
3713;DHT22;1872;51.406;6.856;2024-03-08T10:15:36;7.50;99.90
3713;DHT22;1872;51.406;6.856;2024-03-08T10:18:04;7.40;99.90
3713;DHT22;1872;51.406;6.856;2024-03-08T10:20:31;7.40;99.90
3713;DHT22;1872;51.406;6.856;2024-03-08T10:23:00;7.50;99.90
3713;DHT22;1872;51.406;6.856;2024-03-08T10:25:26;7.50;99.90
3713;DHT22;1872;51.406;6.856;2024-03-08T10:27:52;7.60;99.90
3713;DHT22;1872;51.406;6.856;2024-03-08T10:30:17;7.60;99.90
3713;DHT22;1872;51.406;6.856;2024-03-08T10:32:45;7.60;99.90
3713;DHT22;1872;51.406;6.856;2024-03-08T10:35:11;7.70;99.90
3713;DHT22;1872;51.406;6.856;2024-03-08T10:37:48;7.70;99.90
3713;DHT22;1872;51.406;6.856;2024-03-08T10:40:19;7.80;99.90
3713;DHT22;1872;51.406;6.856;2024-03-08T10:43:05;7.80;99.90
3713;DHT22;1872;51.406;6.856;2024-03-08T10:45:39;7.90;99.90
3713;DHT22;1872;51.406;6.856;2024-03-08T10:50:38;8.00;99.90
3713;DHT22;1872;51.406;6.856;2024-03-08T10:53:06;8.00;99.90
3713;DHT22;1872;51.406;6.856;2024-03-08T10:55:33;8.10;99.90
3713;DHT22;1872;51.406;6.856;2024-03-08T10:58:02;8.10;99.90
3713;DHT22;1872;51.406;6.856;2024-03-08T11:00:29;8.10;99.90
3713;DHT22;1872;51.406;6.856;2024-03-08T11:02:55;8.20;99.90
3713;DHT22;1872;51.406;6.856;2024-03-08T11:08:15;8.30;99.90
3713;DHT22;1872;51.406;6.856;2024-03-08T11:10:48;8.30;99.90
3713;DHT22;1872;51.406;6.856;2024-03-08T11:13:36;8.30;99.90
3713;DHT22;1872;51.406;6.856;2024-03-08T11:16:10;8.40;99.90
3713;DHT22;1872;51.406;6.856;2024-03-08T11:18:37;8.40;99.90
3713;DHT22;1872;51.406;6.856;2024-03-08T11:21:04;8.50;99.90
3713;DHT22;1872;51.406;6.856;2024-03-08T11:23:37;8.50;99.90
3713;DHT22;1872;51.406;6.856;2024-03-08T11:26:03;8.50;99.90
3713;DHT22;1872;51.406;6.856;2024-03-08T11:28:33;8.60;99.90
3713;DHT22;1872;51.406;6.856;2024-03-08T11:33:27;8.70;99.90
3713;DHT22;1872;51.406;6.856;2024-03-08T11:36:11;8.70;99.90
3713;DHT22;1872;51.406;6.856;2024-03-08T11:38:42;8.80;99.90
3713;DHT22;1872;51.406;6.856;2024-03-08T11:41:10;8.80;99.90
3713;DHT22;1872;51.406;6.856;2024-03-08T11:43:40;8.80;99.90
3713;DHT22;1872;51.406;6.856;2024-03-08T11:46:10;8.90;99.90
3713;DHT22;1872;51.406;6.856;2024-03-08T11:48:39;9.00;99.90
3713;DHT22;1872;51.406;6.856;2024-03-08T11:54:29;9.10;99.90
3713;DHT22;1872;51.406;6.856;2024-03-08T11:56:59;9.20;99.90
3713;DHT22;1872;51.406;6.856;2024-03-08T11:59:31;9.20;99.90
3713;DHT22;1872;51.406;6.856;2024-03-08T12:02:00;9.20;99.90
3713;DHT22;1872;51.406;6.856;2024-03-08T12:04:27;9.30;99.90
3713;DHT22;1872;51.406;6.856;2024-03-08T12:06:53;9.30;99.90
3713;DHT22;1872;51.406;6.856;2024-03-08T12:09:19;9.30;99.90
3713;DHT22;1872;51.406;6.856;2024-03-08T12:11:50;9.30;99.90
3713;DHT22;1872;51.406;6.856;2024-03-08T12:14:17;9.40;99.90
3713;DHT22;1872;51.406;6.856;2024-03-08T12:16:43;9.40;99.90
3713;DHT22;1872;51.406;6.856;2024-03-08T12:19:09;9.40;99.90
3713;DHT22;1872;51.406;6.856;2024-03-08T12:21:35;9.40;99.90
3713;DHT22;1872;51.406;6.856;2024-03-08T12:24:06;9.40;99.90
3713;DHT22;1872;51.406;6.856;2024-03-08T12:26:38;9.40;99.90
3713;DHT22;1872;51.406;6.856;2024-03-08T12:29:21;9.50;99.90
3713;DHT22;1872;51.406;6.856;2024-03-08T12:31:55;9.40;99.90
3713;DHT22;1872;51.406;6.856;2024-03-08T12:34:21;9.40;99.90
3713;DHT22;1872;51.406;6.856;2024-03-08T12:36:51;9.50;99.90
3713;DHT22;1872;51.406;6.856;2024-03-08T12:39:21;9.50;99.90
3713;DHT22;1872;51.406;6.856;2024-03-08T12:41:53;9.60;99.90
3713;DHT22;1872;51.406;6.856;2024-03-08T12:44:20;9.60;99.90
3713;DHT22;1872;51.406;6.856;2024-03-08T12:46:50;9.70;99.90
3713;DHT22;1872;51.406;6.856;2024-03-08T12:49:17;9.70;99.90
3713;DHT22;1872;51.406;6.856;2024-03-08T12:51:44;9.80;99.90
3713;DHT22;1872;51.406;6.856;2024-03-08T12:54:10;9.90;99.90
3713;DHT22;1872;51.406;6.856;2024-03-08T12:56:37;10.00;99.90
3713;DHT22;1872;51.406;6.856;2024-03-08T12:59:04;10.00;99.90
3713;DHT22;1872;51.406;6.856;2024-03-08T13:01:31;10.10;99.90
3713;DHT22;1872;51.406;6.856;2024-03-08T13:04:03;10.10;99.90
3713;DHT22;1872;51.406;6.856;2024-03-08T13:06:29;10.20;99.90
3713;DHT22;1872;51.406;6.856;2024-03-08T13:08:56;10.20;99.90
3713;DHT22;1872;51.406;6.856;2024-03-08T13:11:24;10.20;99.90
3713;DHT22;1872;51.406;6.856;2024-03-08T13:13:51;10.30;99.90
3713;DHT22;1872;51.406;6.856;2024-03-08T13:16:18;10.30;99.90
3713;DHT22;1872;51.406;6.856;2024-03-08T13:18:45;10.30;99.90
3713;DHT22;1872;51.406;6.856;2024-03-08T13:21:14;10.40;99.90
3713;DHT22;1872;51.406;6.856;2024-03-08T13:23:41;10.40;99.90
3713;DHT22;1872;51.406;6.856;2024-03-08T13:26:11;10.40;99.90
3713;DHT22;1872;51.406;6.856;2024-03-08T13:28:47;10.40;99.90
3713;DHT22;1872;51.406;6.856;2024-03-08T13:31:14;10.40;99.90
3713;DHT22;1872;51.406;6.856;2024-03-08T13:33:40;10.40;99.90
3713;DHT22;1872;51.406;6.856;2024-03-08T13:36:08;10.40;99.90
3713;DHT22;1872;51.406;6.856;2024-03-08T13:38:43;10.50;99.90
3713;DHT22;1872;51.406;6.856;2024-03-08T13:41:10;10.50;99.90
3713;DHT22;1872;51.406;6.856;2024-03-08T13:43:37;10.50;99.90
3713;DHT22;1872;51.406;6.856;2024-03-08T13:46:04;10.60;99.90
3713;DHT22;1872;51.406;6.856;2024-03-08T13:48:30;10.60;99.90
3713;DHT22;1872;51.406;6.856;2024-03-08T13:50:57;10.60;99.90
3713;DHT22;1872;51.406;6.856;2024-03-08T13:53:23;10.60;99.90
3713;DHT22;1872;51.406;6.856;2024-03-08T13:55:52;10.70;99.90
3713;DHT22;1872;51.406;6.856;2024-03-08T13:58:17;10.70;99.90
3713;DHT22;1872;51.406;6.856;2024-03-08T14:00:45;10.70;99.90
3713;DHT22;1872;51.406;6.856;2024-03-08T14:03:13;10.70;99.90
3713;DHT22;1872;51.406;6.856;2024-03-08T14:05:40;10.70;99.90
3713;DHT22;1872;51.406;6.856;2024-03-08T14:08:07;10.70;99.90
3713;DHT22;1872;51.406;6.856;2024-03-08T14:10:34;10.70;99.90
3713;DHT22;1872;51.406;6.856;2024-03-08T14:13:00;10.70;99.90
3713;DHT22;1872;51.406;6.856;2024-03-08T14:15:26;10.70;99.90
3713;DHT22;1872;51.406;6.856;2024-03-08T14:17:55;10.70;99.90
3713;DHT22;1872;51.406;6.856;2024-03-08T14:20:22;10.70;99.90
3713;DHT22;1872;51.406;6.856;2024-03-08T14:22:54;10.70;99.90
3713;DHT22;1872;51.406;6.856;2024-03-08T14:25:20;10.70;99.90
3713;DHT22;1872;51.406;6.856;2024-03-08T14:27:52;10.70;99.90
3713;DHT22;1872;51.406;6.856;2024-03-08T14:30:31;10.70;99.90
3713;DHT22;1872;51.406;6.856;2024-03-08T14:33:14;10.80;99.90
3713;DHT22;1872;51.406;6.856;2024-03-08T14:35:41;10.80;99.90
3713;DHT22;1872;51.406;6.856;2024-03-08T14:38:07;10.80;99.90
3713;DHT22;1872;51.406;6.856;2024-03-08T14:40:37;10.80;99.90
3713;DHT22;1872;51.406;6.856;2024-03-08T14:43:03;10.90;99.90
3713;DHT22;1872;51.406;6.856;2024-03-08T14:45:30;10.80;99.90
3713;DHT22;1872;51.406;6.856;2024-03-08T14:47:56;10.80;99.90
3713;DHT22;1872;51.406;6.856;2024-03-08T14:50:23;10.80;99.90
3713;DHT22;1872;51.406;6.856;2024-03-08T14:52:50;10.90;99.90
3713;DHT22;1872;51.406;6.856;2024-03-08T14:55:19;10.80;99.90
3713;DHT22;1872;51.406;6.856;2024-03-08T14:57:51;10.80;99.90
3713;DHT22;1872;51.406;6.856;2024-03-08T15:00:18;10.80;99.90
3713;DHT22;1872;51.406;6.856;2024-03-08T15:02:59;10.80;99.90
3713;DHT22;1872;51.406;6.856;2024-03-08T15:05:25;10.80;99.90
3713;DHT22;1872;51.406;6.856;2024-03-08T15:07:54;10.70;99.90
3713;DHT22;1872;51.406;6.856;2024-03-08T15:10:20;10.70;99.90
3713;DHT22;1872;51.406;6.856;2024-03-08T15:12:50;10.70;99.90
3713;DHT22;1872;51.406;6.856;2024-03-08T15:15:18;10.70;99.90
3713;DHT22;1872;51.406;6.856;2024-03-08T15:17:44;10.70;99.90
3713;DHT22;1872;51.406;6.856;2024-03-08T15:20:12;10.70;99.90
3713;DHT22;1872;51.406;6.856;2024-03-08T15:22:53;10.70;99.90
3713;DHT22;1872;51.406;6.856;2024-03-08T15:25:21;10.70;99.90
3713;DHT22;1872;51.406;6.856;2024-03-08T15:27:52;10.70;99.90
3713;DHT22;1872;51.406;6.856;2024-03-08T15:30:19;10.70;99.90
3713;DHT22;1872;51.406;6.856;2024-03-08T15:32:48;10.70;99.90
3713;DHT22;1872;51.406;6.856;2024-03-08T15:35:16;10.60;99.90
3713;DHT22;1872;51.406;6.856;2024-03-08T15:37:43;10.60;99.90
3713;DHT22;1872;51.406;6.856;2024-03-08T15:40:13;10.60;99.90
3713;DHT22;1872;51.406;6.856;2024-03-08T15:45:20;10.60;99.90
3713;DHT22;1872;51.406;6.856;2024-03-08T15:47:46;10.60;99.90
3713;DHT22;1872;51.406;6.856;2024-03-08T15:50:12;10.60;99.90
3713;DHT22;1872;51.406;6.856;2024-03-08T15:52:38;10.50;99.90
3713;DHT22;1872;51.406;6.856;2024-03-08T15:55:07;10.50;99.90
3713;DHT22;1872;51.406;6.856;2024-03-08T15:57:33;10.50;99.90
3713;DHT22;1872;51.406;6.856;2024-03-08T16:00:02;10.50;99.90
3713;DHT22;1872;51.406;6.856;2024-03-08T16:02:39;10.50;99.90
3713;DHT22;1872;51.406;6.856;2024-03-08T16:05:07;10.40;99.90
3713;DHT22;1872;51.406;6.856;2024-03-08T16:07:33;10.40;99.90
3713;DHT22;1872;51.406;6.856;2024-03-08T16:09:58;10.40;99.90
3713;DHT22;1872;51.406;6.856;2024-03-08T16:12:24;10.40;99.90
3713;DHT22;1872;51.406;6.856;2024-03-08T16:14:50;10.40;99.90
3713;DHT22;1872;51.406;6.856;2024-03-08T16:17:16;10.40;99.90
3713;DHT22;1872;51.406;6.856;2024-03-08T16:19:42;10.30;99.90
3713;DHT22;1872;51.406;6.856;2024-03-08T16:22:09;10.30;99.90
3713;DHT22;1872;51.406;6.856;2024-03-08T16:24:35;10.30;99.90
3713;DHT22;1872;51.406;6.856;2024-03-08T16:27:02;10.30;99.90
3713;DHT22;1872;51.406;6.856;2024-03-08T16:29:29;10.30;99.90
3713;DHT22;1872;51.406;6.856;2024-03-08T16:31:55;10.30;99.90
3713;DHT22;1872;51.406;6.856;2024-03-08T16:34:21;10.30;99.90
3713;DHT22;1872;51.406;6.856;2024-03-08T16:36:47;10.20;99.90
3713;DHT22;1872;51.406;6.856;2024-03-08T16:39:13;10.20;99.90
3713;DHT22;1872;51.406;6.856;2024-03-08T16:41:39;10.20;99.90